Time;durP1;ratioP1;P1;durP2;ratioP2;P2;SDS_P1;SDS_P2;PMS_P1;PMS_P2;Temp;Humidity;BMP_temperature;BMP_pressure;BME280_temperature;BME280_humidity;BME280_pressure;Samples;Min_cycle;Max_cycle;Signal;HPM_P1;HPM_P2
2022/01/20 00:00:44;;;;;;;35.53;6.00;;;;;;;1.89;98.96;102455.16;5029383;28;20163;-68
2022/01/20 00:03:14;;;;;;;31.25;5.93;;;;;;;1.87;98.36;102456.94;5031058;28;20545;-69
2022/01/20 00:08:54;;;;;;;29.25;5.57;;;;;;;1.82;98.20;102452.59;5020004;28;20133;-68
2022/01/20 00:27:52;;;;;;;26.83;5.40;;;;;;;1.62;98.74;102465.13;5016000;28;20048;-68
2022/01/20 00:30:44;;;;;;;28.70;4.88;;;;;;;1.58;98.59;102459.06;5030561;28;20029;-68
2022/01/20 00:38:23;;;;;;;27.80;4.82;;;;;;;1.53;98.70;102467.84;5016625;28;20057;-69
2022/01/20 00:40:48;;;;;;;28.77;4.80;;;;;;;1.52;98.82;102463.50;5029945;28;20426;-69
2022/01/20 00:43:14;;;;;;;28.98;5.03;;;;;;;1.50;99.22;102473.09;5027328;28;20092;-68
2022/01/20 00:45:39;;;;;;;23.10;4.97;;;;;;;1.48;99.13;102479.25;5029898;28;20040;-69
2022/01/20 00:48:05;;;;;;;29.15;5.30;;;;;;;1.46;99.18;102467.91;5028640;28;20043;-69
2022/01/20 00:50:31;;;;;;;27.92;4.80;;;;;;;1.45;99.00;102452.25;5029650;28;20030;-69
2022/01/20 00:52:56;;;;;;;23.83;4.65;;;;;;;1.44;99.15;102455.72;5021556;28;20061;-68
2022/01/20 00:55:21;;;;;;;26.17;4.70;;;;;;;1.42;99.64;102460.97;5027554;28;20115;-69
2022/01/20 00:57:47;;;;;;;24.02;4.78;;;;;;;1.43;99.39;102460.13;5027903;28;20386;-69
2022/01/20 01:00:14;;;;;;;24.17;4.28;;;;;;;1.44;99.40;102467.06;5026094;28;20441;-68
2022/01/20 01:02:40;;;;;;;27.60;4.90;;;;;;;1.46;100.00;102473.13;5025234;28;20400;-69
2022/01/20 01:05:10;;;;;;;28.23;4.85;;;;;;;1.49;100.00;102480.09;5023449;28;20101;-68
2022/01/20 01:10:09;;;;;;;24.50;4.55;;;;;;;1.57;100.00;102483.50;5025569;28;20410;-68
2022/01/20 01:12:45;;;;;;;32.50;4.32;;;;;;;1.64;100.00;102485.13;5016021;28;20489;-67
2022/01/20 01:15:18;;;;;;;26.95;4.85;;;;;;;1.69;100.00;102485.09;5029985;28;20467;-67
2022/01/20 01:20:30;;;;;;;23.83;4.07;;;;;;;1.77;100.00;102488.47;5030433;28;20044;-67
2022/01/20 01:22:55;;;;;;;25.30;4.25;;;;;;;1.77;100.00;102491.09;5029754;28;20067;-67
2022/01/20 01:25:20;;;;;;;27.92;3.90;;;;;;;1.79;100.00;102496.31;5027860;28;20029;-67
2022/01/20 01:27:46;;;;;;;22.65;3.90;;;;;;;1.81;100.00;102489.28;5029452;28;20040;-67
2022/01/20 01:30:40;;;;;;;24.38;4.20;;;;;;;1.83;100.00;102490.13;5029914;28;20116;-67
2022/01/20 01:33:07;;;;;;;22.42;4.43;;;;;;;1.84;100.00;102491.88;5029148;28;20087;-67
2022/01/20 01:35:34;;;;;;;19.98;4.13;;;;;;;1.84;100.00;102491.88;5029816;28;20037;-67
2022/01/20 01:40:32;;;;;;;24.77;4.63;;;;;;;1.85;100.00;102491.88;5029860;28;20408;-68
2022/01/20 01:43:01;;;;;;;32.90;4.82;;;;;;;1.85;100.00;102491.88;5029374;28;20057;-68
2022/01/20 01:45:30;;;;;;;33.67;5.47;;;;;;;1.84;100.00;102486.63;5028797;28;20033;-68
2022/01/20 01:47:56;;;;;;;22.02;3.90;;;;;;;1.85;100.00;102483.16;5023656;28;20030;-68
2022/01/20 01:50:23;;;;;;;21.23;4.20;;;;;;;1.85;100.00;102501.47;5029996;28;20029;-68
2022/01/20 01:52:48;;;;;;;28.30;4.30;;;;;;;1.83;100.00;102488.41;5024067;28;20052;-68
2022/01/20 01:55:14;;;;;;;25.08;4.07;;;;;;;1.84;100.00;102495.34;5026627;28;20018;-68
2022/01/20 01:57:40;;;;;;;20.98;4.07;;;;;;;1.83;100.00;102495.38;5032863;28;20053;-68
2022/01/20 02:00:07;;;;;;;27.70;4.32;;;;;;;1.81;100.00;102500.63;5031804;28;20491;-68
2022/01/20 02:02:33;;;;;;;31.15;5.32;;;;;;;1.81;100.00;102495.41;5032797;28;20111;-68
2022/01/20 02:04:58;;;;;;;18.02;3.97;;;;;;;1.80;100.00;102491.06;5024203;28;20172;-68
2022/01/20 02:07:58;;;;;;;27.52;4.60;;;;;;;1.80;100.00;102491.06;5028304;28;20029;-68
2022/01/20 02:20:55;;;;;;;17.83;3.30;;;;;;;1.90;100.00;102506.63;5027635;28;20056;-68
2022/01/20 02:23:21;;;;;;;18.25;3.05;;;;;;;1.92;100.00;102505.75;5032452;28;20028;-68
2022/01/20 02:25:48;;;;;;;14.38;3.30;;;;;;;1.96;100.00;102517.91;5025026;28;20021;-67
2022/01/20 02:28:13;;;;;;;13.68;2.88;;;;;;;1.99;100.00;102515.25;5032078;28;20039;-68
2022/01/20 02:30:43;;;;;;;19.38;3.05;;;;;;;2.01;100.00;102510.84;5029422;28;20025;-67
2022/01/20 02:33:09;;;;;;;;;;;;;;;2.06;100.00;102496.81;5033004;28;20535;-67
2022/01/20 02:35:41;;;;;;;14.63;2.65;;;;;;;2.03;100.00;102498.59;5028461;28;19913;-67
2022/01/20 02:38:15;;;;;;;16.88;3.00;;;;;;;2.07;100.00;102488.94;5032080;28;20021;-67
2022/01/20 02:45:55;;;;;;;13.30;2.60;;;;;;;2.13;100.00;102490.59;5032349;28;20045;-67
2022/01/20 02:48:21;;;;;;;16.38;3.08;;;;;;;2.14;100.00;102489.72;5032334;28;20029;-67
2022/01/20 02:50:46;;;;;;;18.55;3.15;;;;;;;2.17;100.00;102493.16;5030784;28;20037;-67
2022/01/20 02:53:11;;;;;;;19.02;3.03;;;;;;;2.21;100.00;102502.72;5031752;28;20028;-67
2022/01/20 02:55:37;;;;;;;23.30;3.70;;;;;;;2.25;100.00;102494.78;5031991;28;20040;-66
2022/01/20 02:58:03;;;;;;;17.48;3.30;;;;;;;2.26;100.00;102488.66;5025769;28;20040;-66
2022/01/20 03:00:30;;;;;;;20.42;2.95;;;;;;;2.28;100.00;102490.38;5031895;28;20394;-66
2022/01/20 03:02:56;;;;;;;20.38;3.63;;;;;;;2.29;100.00;102481.59;5031113;28;20425;-66
2022/01/20 03:05:22;;;;;;;17.77;3.00;;;;;;;2.27;100.00;102485.16;5031539;28;20095;-66
2022/01/20 03:07:48;;;;;;;15.80;2.90;;;;;;;2.26;100.00;102476.41;5030890;28;20423;-67
2022/01/20 03:10:13;;;;;;;19.05;3.70;;;;;;;2.25;100.00;102472.06;5022226;28;20044;-66
2022/01/20 03:12:38;;;;;;;23.25;3.55;;;;;;;2.22;100.00;102470.34;5031585;28;20032;-66
2022/01/20 03:15:04;;;;;;;13.98;3.08;;;;;;;2.22;100.00;102474.75;5031624;28;20049;-66
2022/01/20 03:17:30;;;;;;;15.68;3.72;;;;;;;2.20;100.00;102485.25;5017957;28;20030;-67
2022/01/20 03:19:56;;;;;;;19.55;3.28;;;;;;;2.18;100.00;102475.66;5031585;28;20035;-67
2022/01/20 03:22:21;;;;;;;15.68;3.33;;;;;;;2.16;100.00;102474.81;5031182;28;20438;-67
2022/01/20 03:24:47;;;;;;;18.75;3.30;;;;;;;2.14;100.00;102463.50;5023145;28;20052;-67
2022/01/20 03:27:12;;;;;;;19.17;3.88;;;;;;;2.11;100.00;102460.94;5031337;28;20022;-68
2022/01/20 03:29:37;;;;;;;16.88;3.00;;;;;;;2.09;100.00;102463.56;5031220;28;20070;-68
2022/01/20 03:32:03;;;;;;;13.55;3.88;;;;;;;2.07;100.00;102457.50;5031310;28;20544;-67
2022/01/20 03:34:28;;;;;;;16.33;3.22;;;;;;;2.06;100.00;102466.22;5020019;28;20033;-67
2022/01/20 03:36:53;;;;;;;23.92;3.63;;;;;;;2.03;100.00;102466.25;5031681;28;20565;-68
2022/01/20 03:39:19;;;;;;;13.20;3.00;;;;;;;2.01;100.00;102463.66;5031099;28;20039;-67
2022/01/20 03:41:45;;;;;;;19.50;3.40;;;;;;;2.01;100.00;102457.56;5021075;28;20537;-67
2022/01/20 03:44:10;;;;;;;20.42;3.50;;;;;;;2.00;100.00;102461.09;5031072;28;20472;-67
2022/01/20 03:46:36;;;;;;;18.38;3.90;;;;;;;1.99;100.00;102461.97;5030940;28;20057;-67
2022/01/20 03:49:20;;;;;;;22.88;3.67;;;;;;;1.98;100.00;102460.22;5027161;28;20396;-67
2022/01/20 03:51:46;;;;;;;15.35;2.92;;;;;;;1.98;100.00;102462.84;5029676;28;20124;-67
2022/01/20 03:54:11;;;;;;;15.02;3.47;;;;;;;1.97;100.00;102462.00;5022017;28;20551;-67
2022/01/20 03:56:36;;;;;;;14.63;3.63;;;;;;;1.95;100.00;102460.28;5027405;28;20033;-67
2022/01/20 03:59:01;;;;;;;20.65;4.47;;;;;;;1.95;100.00;102455.91;5030770;28;20106;-68
2022/01/20 04:01:28;;;;;;;14.57;2.80;;;;;;;1.92;99.80;102453.34;5029446;28;20407;-68
2022/01/20 04:03:53;;;;;;;16.58;3.00;;;;;;;1.91;100.00;102455.97;5030746;28;20021;-67
2022/01/20 04:06:18;;;;;;;20.38;4.05;;;;;;;1.88;99.86;102456.88;5030804;28;20104;-68
2022/01/20 04:08:46;;;;;;;21.10;4.15;;;;;;;1.87;99.88;102460.41;5030624;28;20021;-67
2022/01/20 04:11:21;;;;;;;19.65;3.30;;;;;;;1.85;100.00;102462.19;5024831;28;20036;-67
2022/01/20 04:13:47;;;;;;;16.55;3.83;;;;;;;1.83;99.73;102470.06;5020371;28;20034;-67
2022/01/20 04:16:17;;;;;;;20.20;3.47;;;;;;;1.83;99.87;102477.03;5030489;28;20040;-67
2022/01/20 04:18:52;;;;;;;16.63;3.50;;;;;;;1.83;99.63;102474.41;5029013;28;20049;-67
2022/01/20 04:21:19;;;;;;;18.15;3.35;;;;;;;1.84;100.00;102481.41;5029867;28;20091;-67
2022/01/20 04:23:44;;;;;;;19.10;3.75;;;;;;;1.84;100.00;102477.00;5030131;28;20133;-67
2022/01/20 04:26:09;;;;;;;21.63;3.08;;;;;;;1.85;100.00;102484.00;5027967;28;20104;-67
2022/01/20 04:28:35;;;;;;;28.35;3.53;;;;;;;1.89;99.94;102490.06;5030807;28;20076;-66
2022/01/20 04:31:00;;;;;;;27.42;4.00;;;;;;;1.90;99.91;102488.28;5030522;28;20401;-67
2022/01/20 04:33:25;;;;;;;20.90;3.97;;;;;;;1.95;100.00;102489.97;5026029;28;20091;-67
2022/01/20 04:35:51;;;;;;;25.77;4.63;;;;;;;1.98;100.00;102496.91;5030353;28;20428;-67
2022/01/20 04:38:16;;;;;;;18.58;3.40;;;;;;;2.03;100.00;102510.81;5024770;28;20022;-67
2022/01/20 04:40:43;;;;;;;21.15;3.30;;;;;;;2.04;100.00;102510.81;5021396;28;20080;-66
2022/01/20 04:43:08;;;;;;;20.67;3.53;;;;;;;2.06;100.00;102505.53;5017006;28;20032;-66
2022/01/20 04:45:39;;;;;;;29.48;3.78;;;;;;;2.09;100.00;102508.13;5029438;28;20124;-67
2022/01/20 04:58:57;;;;;;;16.65;3.40;;;;;;;2.07;100.00;102515.16;5030000;28;20521;-66
2022/01/20 05:01:23;;;;;;;18.50;3.78;;;;;;;2.07;100.00;102515.16;5022967;28;20113;-67
2022/01/20 05:03:48;;;;;;;20.08;3.92;;;;;;;2.07;100.00;102525.63;5022742;28;20018;-67
2022/01/20 05:06:13;;;;;;;17.35;3.92;;;;;;;2.08;100.00;102535.22;5030253;28;20049;-67
2022/01/20 05:08:39;;;;;;;25.13;4.50;;;;;;;2.09;100.00;102543.97;5019700;28;20049;-67
2022/01/20 05:11:05;;;;;;;22.80;3.80;;;;;;;2.10;100.00;102545.69;5026971;28;20630;-67
2022/01/20 05:13:37;;;;;;;20.33;3.83;;;;;;;2.11;100.00;102550.91;5029882;28;20022;-67
2022/01/20 05:16:03;;;;;;;20.15;3.22;;;;;;;2.12;100.00;102549.16;5016677;28;20030;-67
2022/01/20 05:18:28;;;;;;;22.35;3.58;;;;;;;2.15;100.00;102539.50;5028779;28;20025;-67
2022/01/20 05:20:54;;;;;;;23.85;3.80;;;;;;;2.18;100.00;102541.19;5024420;28;20380;-67
2022/01/20 05:23:19;;;;;;;23.05;4.07;;;;;;;2.20;100.00;102548.16;5019654;28;20021;-67
2022/01/20 05:25:45;;;;;;;22.50;3.97;;;;;;;2.20;100.00;102545.53;5033593;28;20491;-67
2022/01/20 05:28:10;;;;;;;27.27;4.88;;;;;;;2.23;100.00;102560.34;5024923;28;20056;-67
2022/01/20 05:30:35;;;;;;;31.05;4.20;;;;;;;2.25;100.00;102558.59;5033524;28;20044;-68
2022/01/20 05:33:02;;;;;;;24.40;4.05;;;;;;;2.26;100.00;102565.56;5033352;28;20063;-67
2022/01/20 05:35:28;;;;;;;23.17;4.03;;;;;;;2.27;100.00;102554.19;5028398;28;20040;-67
2022/01/20 05:37:53;;;;;;;14.90;3.15;;;;;;;2.30;100.00;102564.63;5027041;28;20029;-67
2022/01/20 05:40:19;;;;;;;18.70;3.20;;;;;;;2.31;100.00;102576.84;5027059;28;20021;-67
2022/01/20 05:42:44;;;;;;;18.20;3.75;;;;;;;2.34;100.00;102589.06;5033468;28;20382;-66
2022/01/20 05:45:12;;;;;;;15.43;3.08;;;;;;;2.35;100.00;102580.31;5023911;28;20033;-67
2022/01/20 05:47:43;;;;;;;20.65;3.55;;;;;;;2.34;100.00;102578.56;5033319;28;20030;-67
2022/01/20 05:50:13;;;;;;;8.75;2.47;;;;;;;2.35;100.00;102589.03;5032992;28;20531;-66
2022/01/20 05:52:41;;;;;;;12.05;2.85;;;;;;;2.32;100.00;102596.94;5031499;28;20522;-67
2022/01/20 05:55:11;;;;;;;13.88;3.30;;;;;;;2.32;100.00;102596.94;5028255;28;20083;-67
2022/01/20 05:57:37;;;;;;;14.90;3.13;;;;;;;2.30;100.00;102606.59;5033180;28;20104;-67
2022/01/20 06:00:05;;;;;;;14.15;2.70;;;;;;;2.27;100.00;102604.00;5032928;28;20113;-67
2022/01/20 06:02:36;;;;;;;18.13;2.85;;;;;;;2.30;100.00;102618.81;5031110;28;20495;-67
2022/01/20 06:05:03;;;;;;;17.42;3.30;;;;;;;2.29;100.00;102620.56;5023970;28;20041;-67
2022/01/20 06:07:29;;;;;;;12.80;2.90;;;;;;;2.30;100.00;102613.56;5031072;28;20163;-67
2022/01/20 06:09:54;;;;;;;17.23;2.78;;;;;;;2.30;100.00;102624.94;5021969;28;20497;-67
2022/01/20 06:12:19;;;;;;;15.07;3.20;;;;;;;2.28;100.00;102615.34;5032553;28;20040;-67
2022/01/20 06:14:44;;;;;;;19.80;3.67;;;;;;;2.30;100.00;102622.31;5023033;28;20025;-66
2022/01/20 06:17:10;;;;;;;12.82;3.05;;;;;;;2.29;100.00;102630.19;5032570;28;20022;-67
2022/01/20 06:19:35;;;;;;;15.55;3.35;;;;;;;2.27;99.83;102624.97;5032461;28;20072;-67
2022/01/20 06:22:00;;;;;;;17.30;3.30;;;;;;;2.29;99.71;102630.19;5030009;28;20347;-66
2022/01/20 06:24:26;;;;;;;10.00;3.05;;;;;;;2.28;99.63;102634.59;5027668;28;20029;-66
2022/01/20 06:26:51;;;;;;;14.77;2.90;;;;;;;2.29;99.35;102645.94;5032451;28;20474;-67
2022/01/20 06:29:16;;;;;;;18.42;3.63;;;;;;;2.29;99.33;102644.16;5031200;28;20033;-66
2022/01/20 06:31:41;;;;;;;19.35;4.45;;;;;;;2.28;99.60;102655.56;5031463;28;20044;-66
2022/01/20 06:34:07;;;;;;;16.55;3.20;;;;;;;2.27;99.06;102650.34;5024700;28;20099;-66
2022/01/20 06:36:32;;;;;;;14.85;3.00;;;;;;;2.26;98.77;102653.84;5032372;28;20060;-66
2022/01/20 06:38:58;;;;;;;19.38;3.83;;;;;;;2.27;98.57;102643.31;5032281;28;20057;-67
2022/01/20 06:41:25;;;;;;;19.33;3.08;;;;;;;2.24;98.34;102643.38;5020312;28;20026;-67
2022/01/20 06:43:51;;;;;;;12.00;3.33;;;;;;;2.28;98.24;102652.94;5029896;28;20021;-68
2022/01/20 06:46:17;;;;;;;18.08;3.00;;;;;;;2.28;98.43;102657.28;5033318;28;20084;-67
2022/01/20 06:48:42;;;;;;;21.55;3.10;;;;;;;2.28;98.24;102662.53;5033977;28;20430;-68
2022/01/20 06:51:08;;;;;;;21.05;3.47;;;;;;;2.27;98.48;102664.31;5033877;28;20037;-67
2022/01/20 06:53:33;;;;;;;15.10;3.40;;;;;;;2.25;98.15;102663.47;5032318;28;20083;-67
2022/01/20 06:55:59;;;;;;;17.85;3.80;;;;;;;2.24;97.79;102677.44;5019620;28;20057;-67
2022/01/20 06:58:24;;;;;;;23.70;4.68;;;;;;;2.22;97.96;102677.47;5033478;28;20025;-67
2022/01/20 07:00:49;;;;;;;16.38;3.55;;;;;;;2.22;97.70;102685.31;5032894;28;20033;-68
2022/01/20 07:03:16;;;;;;;22.02;3.67;;;;;;;2.22;97.39;102684.47;5026906;28;20379;-68
2022/01/20 07:05:41;;;;;;;21.85;4.32;;;;;;;2.20;97.21;102688.88;5023715;28;20037;-68
2022/01/20 07:08:06;;;;;;;16.90;3.58;;;;;;;2.20;97.03;102694.13;5031528;28;20394;-67
2022/01/20 07:10:32;;;;;;;27.55;4.50;;;;;;;2.18;96.35;102698.47;5031672;28;20069;-67
2022/01/20 07:12:57;;;;;;;21.05;3.97;;;;;;;2.18;96.50;102698.47;5027497;28;20083;-68
2022/01/20 07:15:22;;;;;;;17.60;4.28;;;;;;;2.17;96.50;102709.88;5017406;28;20156;-67
2022/01/20 07:17:48;;;;;;;26.65;4.75;;;;;;;2.15;96.36;102709.00;5041983;28;20494;-68
2022/01/20 07:20:14;;;;;;;23.40;4.80;;;;;;;2.14;96.88;102707.28;5026602;28;20040;-67
2022/01/20 07:22:39;;;;;;;21.60;4.75;;;;;;;2.15;96.07;102711.63;5030763;28;20033;-67
2022/01/20 07:25:05;;;;;;;22.35;4.40;;;;;;;2.14;96.33;102717.78;5031304;28;20183;-68
2022/01/20 07:27:30;;;;;;;27.67;4.10;;;;;;;2.11;96.19;102729.13;5016844;28;20026;-67
2022/01/20 07:29:55;;;;;;;28.27;4.57;;;;;;;2.09;95.69;102730.91;5021439;28;20026;-68
2022/01/20 07:32:21;;;;;;;17.88;4.47;;;;;;;2.09;95.90;102737.91;5018986;28;20030;-68
2022/01/20 07:34:46;;;;;;;25.83;3.67;;;;;;;2.06;95.97;102736.19;5012388;28;20124;-67
2022/01/20 07:37:11;;;;;;;26.40;4.97;;;;;;;2.04;95.78;102735.34;5032117;28;20518;-67
2022/01/20 07:39:37;;;;;;;28.35;5.22;;;;;;;2.04;95.21;102746.69;5036510;28;20025;-67
2022/01/20 07:42:02;;;;;;;20.42;3.80;;;;;;;2.03;95.50;102750.22;5034312;28;20046;-67
2022/01/20 07:44:28;;;;;;;19.23;3.63;;;;;;;2.03;95.37;102747.59;5015430;28;20026;-67
2022/01/20 07:46:53;;;;;;;22.15;4.05;;;;;;;2.03;95.26;102747.59;5033431;28;20146;-70
2022/01/20 07:49:19;;;;;;;28.98;5.18;;;;;;;2.02;95.37;102745.84;5038231;28;20029;-70
2022/01/20 07:51:44;;;;;;;25.83;4.20;;;;;;;2.02;95.07;102744.97;5034904;28;20136;-70
2022/01/20 07:54:09;;;;;;;20.95;3.67;;;;;;;2.03;95.34;102749.31;5030331;28;20112;-70
2022/01/20 07:56:35;;;;;;;22.35;3.90;;;;;;;2.01;95.29;102758.97;5021126;28;20115;-69
2022/01/20 07:59:00;;;;;;;25.17;4.20;;;;;;;2.01;95.83;102765.06;5025231;28;20085;-68
2022/01/20 08:01:26;;;;;;;19.70;4.57;;;;;;;2.03;95.49;102771.19;5023381;28;20045;-68
2022/01/20 08:03:52;;;;;;;21.85;4.60;;;;;;;2.02;95.56;102766.81;5025872;28;20030;-69
2022/01/20 08:06:18;;;;;;;21.58;4.38;;;;;;;2.03;95.66;102757.19;5028819;28;20049;-69
2022/01/20 08:08:43;;;;;;;21.80;4.35;;;;;;;2.03;95.56;102762.41;5028061;28;20476;-68
2022/01/20 08:11:09;;;;;;;15.93;3.90;;;;;;;2.05;95.79;102773.78;5023514;28;20072;-68
2022/01/20 08:13:34;;;;;;;20.02;3.83;;;;;;;2.04;95.88;102785.16;5021996;28;20369;-68
2022/01/20 08:15:59;;;;;;;22.90;5.00;;;;;;;2.06;96.23;102790.38;5021587;28;20057;-69
2022/01/20 08:18:24;;;;;;;20.00;4.00;;;;;;;2.06;96.23;102793.00;5029614;28;20030;-69
2022/01/20 08:20:50;;;;;;;19.95;4.65;;;;;;;2.05;96.14;102792.13;5037693;28;20042;-68
2022/01/20 08:23:15;;;;;;;23.92;4.35;;;;;;;2.06;95.91;102798.22;5041600;28;20637;-69
2022/01/20 08:25:40;;;;;;;23.98;4.35;;;;;;;2.05;96.17;102805.25;5050720;28;20045;-68
2022/01/20 08:28:06;;;;;;;19.27;5.00;;;;;;;2.06;95.72;102800.84;5048170;28;20412;-69
2022/01/20 08:30:31;;;;;;;21.95;4.40;;;;;;;2.06;96.21;102809.56;5036809;28;20026;-69
2022/01/20 08:32:57;;;;;;;22.13;4.57;;;;;;;2.08;95.48;102809.56;5038492;28;20472;-69
2022/01/20 08:35:23;;;;;;;21.67;4.93;;;;;;;2.08;95.64;102801.69;5032593;28;20033;-70
2022/01/20 08:37:49;;;;;;;22.83;4.22;;;;;;;2.07;95.32;102798.22;5042707;28;20025;-68
2022/01/20 08:40:18;;;;;;;15.18;4.35;;;;;;;2.07;94.45;102803.47;5041561;28;20462;-68
2022/01/20 08:42:45;;;;;;;;;;;;;;;2.14;95.07;102814.75;5034899;28;20127;-70
2022/01/20 08:45:12;;;;;;;21.73;3.97;;;;;;;2.06;94.26;102809.56;5040915;28;19921;-69
2022/01/20 08:47:38;;;;;;;21.13;4.03;;;;;;;2.10;94.62;102826.13;5037790;28;20157;-68
2022/01/20 08:50:05;;;;;;;11.10;3.25;;;;;;;2.09;93.42;102821.81;5031072;28;20523;-65
2022/01/20 08:52:31;;;;;;;14.95;3.05;;;;;;;2.09;93.55;102824.41;5030054;28;20399;-67
2022/01/20 08:54:58;;;;;;;17.98;3.13;;;;;;;2.11;93.67;102830.50;5016451;28;20354;-68
2022/01/20 08:57:24;;;;;;;21.92;3.72;;;;;;;2.12;93.83;102827.88;5025284;28;20045;-67
2022/01/20 08:59:50;;;;;;;17.92;3.42;;;;;;;2.10;93.00;102820.91;5033873;28;20022;-69
2022/01/20 09:02:15;;;;;;;13.45;3.03;;;;;;;2.14;92.98;102827.88;5027235;28;20108;-68
2022/01/20 09:04:40;;;;;;;14.95;3.10;;;;;;;2.15;93.37;102833.09;5015777;28;20454;-67
2022/01/20 09:07:05;;;;;;;14.02;3.40;;;;;;;2.18;93.42;102846.19;5019220;28;20034;-67
2022/01/20 09:09:34;;;;;;;21.67;3.20;;;;;;;2.19;93.11;102837.41;5030310;28;20029;-67
2022/01/20 09:17:25;;;;;;;16.73;2.97;;;;;;;2.25;92.34;102862.72;5033640;28;20088;-67
2022/01/20 09:19:51;;;;;;;17.98;3.15;;;;;;;2.25;91.77;102867.97;5033585;28;20415;-68
2022/01/20 09:22:17;;;;;;;15.18;3.15;;;;;;;2.28;91.44;102872.31;5036827;28;20073;-67
2022/01/20 09:24:44;;;;;;;16.08;3.03;;;;;;;2.30;91.93;102867.91;5032924;28;20026;-67
2022/01/20 09:27:10;;;;;;;19.65;3.33;;;;;;;2.32;92.15;102872.25;5027861;28;20396;-68
2022/01/20 09:29:35;;;;;;;18.45;3.60;;;;;;;2.34;92.46;102864.38;5034737;28;20060;-67
2022/01/20 09:32:03;;;;;;;15.95;3.80;;;;;;;2.37;92.04;102859.13;5031820;28;20046;-67
2022/01/20 09:34:29;;;;;;;14.35;2.80;;;;;;;2.38;92.46;102859.09;5018302;28;20100;-67
2022/01/20 09:36:54;;;;;;;18.80;3.67;;;;;;;2.39;91.91;102863.44;5028993;28;20125;-68
2022/01/20 09:39:20;;;;;;;17.50;3.35;;;;;;;2.41;92.05;102858.19;5016592;28;20513;-67
2022/01/20 09:41:46;;;;;;;18.30;3.80;;;;;;;2.46;91.14;102850.28;5013890;28;20042;-67
2022/01/20 09:44:12;;;;;;;21.40;3.88;;;;;;;2.61;92.76;102846.63;5014439;28;20022;-67
2022/01/20 09:46:38;;;;;;;13.80;3.15;;;;;;;2.69;92.27;102848.28;5017119;28;20480;-67
2022/01/20 09:49:03;;;;;;;21.83;3.83;;;;;;;2.78;93.09;102858.66;5032371;28;20028;-67
2022/01/20 09:51:29;;;;;;;18.25;3.80;;;;;;;2.81;91.51;102860.38;5032582;28;20041;-67
2022/01/20 09:53:54;;;;;;;14.07;3.90;;;;;;;2.85;91.76;102861.19;5032007;28;20124;-68
2022/01/20 09:56:20;;;;;;;15.30;3.15;;;;;;;2.86;91.12;102860.31;5026315;28;20127;-67
2022/01/20 09:58:45;;;;;;;18.20;3.50;;;;;;;2.91;91.82;102872.50;5039341;28;20029;-67
2022/01/20 10:01:11;;;;;;;14.95;3.50;;;;;;;2.93;91.57;102881.25;5023829;28;20361;-67
2022/01/20 10:03:37;;;;;;;17.02;3.53;;;;;;;2.95;90.00;102896.97;5042279;28;20040;-68
2022/01/20 10:06:05;;;;;;;13.13;3.00;;;;;;;3.00;89.38;102902.16;5020192;28;20053;-67
2022/01/20 10:08:32;;;;;;;13.48;3.10;;;;;;;3.01;89.24;102910.00;5019321;28;20101;-68
2022/01/20 10:10:58;;;;;;;17.98;3.38;;;;;;;3.10;89.32;102906.44;5015719;28;20513;-67
2022/01/20 10:13:26;;;;;;;12.48;3.15;;;;;;;3.19;89.43;102908.94;5016516;28;20128;-67
2022/01/20 10:16:02;;;;;;;14.00;3.53;;;;;;;3.31;88.56;102902.66;5017614;28;20029;-67
2022/01/20 10:18:30;;;;;;;13.85;2.88;;;;;;;3.40;88.40;102906.91;5015690;28;20038;-67
2022/01/20 10:21:03;;;;;;;21.67;4.00;;;;;;;3.50;87.61;102909.41;5014329;28;20380;-67
2022/01/20 10:23:40;;;;;;;14.65;3.00;;;;;;;3.58;87.23;102908.41;5015389;28;20056;-67
2022/01/20 10:26:12;;;;;;;18.77;3.47;;;;;;;3.70;85.85;102919.63;5016497;28;20559;-68
2022/01/20 10:29:12;;;;;;;19.52;3.03;;;;;;;3.78;86.46;102916.91;5029607;28;20430;-67
2022/01/20 10:31:49;;;;;;;13.57;3.10;;;;;;;3.87;86.33;102921.16;5020664;28;20494;-67
2022/01/20 10:34:32;;;;;;;16.35;3.15;;;;;;;3.93;85.93;102922.81;5031201;28;20038;-67
2022/01/20 10:37:04;;;;;;;19.98;3.67;;;;;;;4.04;84.04;102934.03;5026498;28;20048;-67
2022/01/20 10:39:42;;;;;;;18.40;3.20;;;;;;;4.13;83.88;102933.00;5031001;28;20034;-68
2022/01/20 10:42:10;;;;;;;16.20;3.53;;;;;;;4.24;82.87;102934.56;5033066;28;20049;-67
2022/01/20 10:44:49;;;;;;;19.83;3.70;;;;;;;4.40;83.96;102931.72;5026744;28;20494;-68
2022/01/20 10:47:19;;;;;;;18.23;3.13;;;;;;;4.50;83.29;102930.66;5032947;28;20017;-67
2022/01/20 10:49:45;;;;;;;14.73;3.47;;;;;;;4.56;79.66;102938.44;5029108;28;20025;-67
2022/01/20 10:52:13;;;;;;;22.38;4.13;;;;;;;4.56;79.77;102927.03;5030511;28;20077;-67
2022/01/20 10:54:47;;;;;;;17.20;4.75;;;;;;;4.53;79.31;102938.50;5029937;28;20390;-71
2022/01/20 10:57:15;;;;;;;23.23;4.70;;;;;;;4.53;79.14;102934.97;5029302;28;20029;-71
2022/01/20 10:59:57;;;;;;;15.27;3.92;;;;;;;4.51;79.96;102913.94;5022491;28;20490;-71
2022/01/20 11:02:27;;;;;;;11.68;3.10;;;;;;;4.53;78.73;102920.06;5028334;28;20300;-70
2022/01/20 11:04:53;;;;;;;22.42;3.40;;;;;;;4.50;76.31;102921.91;5036591;28;20543;-72
2022/01/20 11:07:18;;;;;;;11.85;2.95;;;;;;;4.48;78.18;102927.19;5030790;28;20097;-68
2022/01/20 11:09:46;;;;;;;18.23;3.17;;;;;;;4.44;77.33;102922.84;5030796;28;20121;-70
2022/01/20 11:12:14;;;;;;;12.75;3.42;;;;;;;4.42;77.51;102933.41;5029151;28;20029;-70
2022/01/20 11:14:40;;;;;;;15.98;3.67;;;;;;;4.40;77.72;102929.94;5030305;28;20398;-70
2022/01/20 11:17:06;;;;;;;17.35;3.00;;;;;;;4.36;76.24;102930.88;5029414;28;20029;-71
2022/01/20 11:19:38;;;;;;;18.42;3.17;;;;;;;4.33;75.86;102935.31;5029375;28;20473;-71
2022/01/20 11:22:11;;;;;;;12.65;3.13;;;;;;;4.25;75.17;102935.47;5022578;28;20096;-71
2022/01/20 11:24:37;;;;;;;21.58;3.60;;;;;;;4.23;77.11;102927.59;5031511;28;20345;-71
2022/01/20 11:27:05;;;;;;;17.13;3.63;;;;;;;4.24;77.52;102933.72;5031098;28;20052;-71
2022/01/20 11:29:46;;;;;;;13.63;3.72;;;;;;;4.30;76.75;102936.25;5040959;28;20490;-71
2022/01/20 11:32:26;;;;;;;14.48;3.20;;;;;;;4.40;77.48;102929.94;5032362;28;20048;-71
2022/01/20 11:35:04;;;;;;;;;;;;;;;4.52;80.66;102923.59;5023491;28;20172;-70
2022/01/20 11:37:34;;;;;;;14.98;3.22;;;;;;;4.58;76.66;102928.75;5030715;28;19909;-71
2022/01/20 11:40:11;;;;;;;22.38;3.67;;;;;;;4.63;75.80;102926.03;5026854;28;20490;-71
2022/01/20 11:42:38;;;;;;;17.33;3.92;;;;;;;4.62;74.55;102922.53;5023862;28;20047;-70
2022/01/20 11:45:22;;;;;;;14.15;3.00;;;;;;;4.65;76.65;102924.25;5040089;28;20424;-71
2022/01/20 11:47:47;;;;;;;16.70;3.90;;;;;;;4.61;75.35;102926.06;5024274;28;20064;-71
2022/01/20 11:50:17;;;;;;;15.88;4.07;;;;;;;4.60;74.67;102919.06;5046774;28;20028;-71
2022/01/20 11:52:42;;;;;;;16.33;3.90;;;;;;;4.59;74.95;102919.09;5038068;28;20060;-71
2022/01/20 11:55:12;;;;;;;12.02;2.80;;;;;;;4.56;75.73;102913.88;5025337;28;20030;-71
2022/01/20 11:57:38;;;;;;;19.20;3.55;;;;;;;4.54;74.35;102913.91;5030257;28;20148;-71
2022/01/20 12:00:19;;;;;;;17.98;3.65;;;;;;;4.55;76.35;102904.25;5030234;28;20056;-71
2022/01/20 12:02:44;;;;;;;12.02;3.17;;;;;;;4.53;75.89;102914.81;5027607;28;20042;-71
2022/01/20 12:05:26;;;;;;;21.75;3.67;;;;;;;4.58;77.30;102925.22;5024993;28;20091;-71
2022/01/20 12:08:03;;;;;;;17.38;3.70;;;;;;;4.51;74.35;102924.47;5032319;28;20407;-71
2022/01/20 12:10:28;;;;;;;15.65;3.42;;;;;;;4.48;75.92;102915.75;5033602;28;20022;-71
2022/01/20 12:13:04;;;;;;;13.05;2.95;;;;;;;4.46;76.86;102907.91;5026901;28;20137;-71
2022/01/20 12:15:30;;;;;;;16.23;3.40;;;;;;;4.48;77.33;102900.88;5030320;28;20021;-71
2022/01/20 12:17:56;;;;;;;17.63;3.55;;;;;;;4.50;76.80;102896.44;5041662;28;20042;-71
2022/01/20 12:20:23;;;;;;;13.73;2.80;;;;;;;4.57;77.65;102886.66;5029519;28;20029;-71
2022/01/20 12:22:49;;;;;;;19.52;3.80;;;;;;;4.70;78.47;102897.84;5011844;28;20041;-71
2022/01/20 12:25:24;;;;;;;15.82;3.17;;;;;;;4.71;76.47;102889.03;5012985;28;20060;-71
2022/01/20 12:27:50;;;;;;;15.27;3.30;;;;;;;4.74;76.23;102894.25;5016754;28;20068;-71